createdAt,value
2023-01-25T00:00:22.136Z,143538.50
2023-01-25T00:02:49.001Z,143519.19
2023-01-25T00:05:17.007Z,143524.00
2023-01-25T00:07:43.830Z,143524.00
2023-01-25T00:10:10.920Z,143510.72
2023-01-25T00:12:37.713Z,143507.09
2023-01-25T00:15:04.934Z,143497.47
2023-01-25T00:17:31.742Z,143505.91
2023-01-25T00:19:58.590Z,143502.28
2023-01-25T00:22:25.391Z,143498.66
2023-01-25T00:24:52.227Z,143510.72
2023-01-25T00:27:19.195Z,143514.38
2023-01-25T00:29:46.042Z,143504.72
2023-01-25T00:32:12.951Z,143487.81
2023-01-25T00:34:43.109Z,143514.38
2023-01-25T00:37:14.514Z,143514.38
2023-01-25T00:39:41.394Z,143507.09
2023-01-25T00:42:10.261Z,143501.09
2023-01-25T00:44:37.943Z,143511.94
2023-01-25T00:47:07.822Z,143504.72
2023-01-25T00:49:34.942Z,143526.44
2023-01-25T00:52:02.207Z,143552.97
2023-01-25T00:54:29.198Z,143513.16
2023-01-25T00:56:56.649Z,143498.66
2023-01-25T00:59:24.588Z,143491.44
2023-01-25T01:01:52.655Z,143480.56
2023-01-25T01:04:20.170Z,143480.56
2023-01-25T01:06:46.999Z,143478.16
2023-01-25T01:09:15.451Z,143519.19
2023-01-25T01:11:42.465Z,143524.00
2023-01-25T01:14:09.419Z,143499.91
2023-01-25T01:16:36.308Z,143525.22
2023-01-25T01:19:03.455Z,143519.19
2023-01-25T01:21:30.270Z,143485.38
2023-01-25T01:23:57.518Z,143490.25
2023-01-25T01:26:24.734Z,143492.63
2023-01-25T01:28:51.562Z,143475.72
2023-01-25T01:31:19.826Z,143496.25
2023-01-25T01:33:56.713Z,143498.66
2023-01-25T01:36:25.385Z,143507.09
2023-01-25T01:38:52.426Z,143491.44
2023-01-25T01:41:19.597Z,143487.81
2023-01-25T01:43:47.415Z,143510.72
2023-01-25T01:46:14.427Z,143492.63
2023-01-25T01:48:47.077Z,143486.63
2023-01-25T01:51:18.653Z,143502.28
2023-01-25T01:53:49.720Z,143478.16
2023-01-25T01:56:20.499Z,143513.16
2023-01-25T01:58:50.320Z,143503.47
2023-01-25T02:01:18.119Z,143490.25
2023-01-25T02:03:45.223Z,143487.81
2023-01-25T02:06:30.995Z,143470.91
2023-01-25T02:08:58.514Z,143490.25
2023-01-25T02:11:27.725Z,143499.91
2023-01-25T02:13:57.278Z,143485.38
2023-01-25T02:16:27.265Z,143480.56
2023-01-25T02:18:56.486Z,143492.63
2023-01-25T02:21:23.762Z,143483.00
2023-01-25T02:23:53.477Z,143499.91
2023-01-25T02:26:21.847Z,143444.34
2023-01-25T02:28:50.070Z,143476.97
2023-01-25T02:31:17.665Z,143493.81
2023-01-25T02:33:44.617Z,143483.00
2023-01-25T02:36:11.419Z,143476.97
2023-01-25T02:38:53.565Z,143457.63
2023-01-25T02:41:20.854Z,143468.50
2023-01-25T02:43:48.292Z,143462.44
2023-01-25T02:46:22.597Z,143476.97
2023-01-25T02:48:49.477Z,143511.94
2023-01-25T02:51:16.455Z,143483.00
2023-01-25T02:53:43.287Z,143454.03
2023-01-25T02:56:10.112Z,143451.63
2023-01-25T02:58:36.915Z,143470.91
2023-01-25T03:01:03.942Z,143437.13
2023-01-25T03:03:31.451Z,143455.25
2023-01-25T03:05:58.299Z,143457.63
2023-01-25T03:08:25.820Z,143472.16
2023-01-25T03:10:58.106Z,143472.16
2023-01-25T03:13:25.905Z,143492.63
2023-01-25T03:15:58.306Z,143498.66
2023-01-25T03:18:25.533Z,143473.34
2023-01-25T03:20:52.338Z,143451.63
2023-01-25T03:23:19.259Z,143441.97
2023-01-25T03:25:46.167Z,143456.44
2023-01-25T03:28:16.933Z,143449.19
2023-01-25T03:30:52.456Z,143456.44
2023-01-25T03:33:19.713Z,143454.03
2023-01-25T03:35:46.613Z,143456.44
2023-01-25T03:38:13.437Z,143433.50
2023-01-25T03:40:40.232Z,143440.78
2023-01-25T03:43:07.606Z,143478.16
2023-01-25T03:45:34.467Z,143473.34
2023-01-25T03:48:01.694Z,143429.88
2023-01-25T03:50:29.690Z,143449.19
2023-01-25T03:52:59.771Z,143458.88
2023-01-25T03:55:28.183Z,143438.34
2023-01-25T03:57:55.104Z,143452.81
2023-01-25T04:00:21.921Z,143468.50
2023-01-25T04:02:56.477Z,143449.19
2023-01-25T04:05:23.353Z,143427.50
2023-01-25T04:07:50.251Z,143420.25
2023-01-25T04:10:21.368Z,143222.44
2023-01-25T04:12:48.989Z,143232.13
2023-01-25T04:15:16.366Z,143437.13
2023-01-25T04:17:43.251Z,143439.53
2023-01-25T04:20:23.905Z,143443.16
2023-01-25T04:22:51.189Z,143444.34
2023-01-25T04:25:20.408Z,143439.53
2023-01-25T04:27:51.859Z,143429.88
2023-01-25T04:30:18.787Z,143426.25
2023-01-25T04:32:46.687Z,143429.88
2023-01-25T04:35:30.431Z,143410.59
2023-01-25T04:37:58.257Z,143408.16
2023-01-25T04:40:30.037Z,143415.41
2023-01-25T04:42:57.163Z,143411.78
2023-01-25T04:45:25.440Z,143412.97
2023-01-25T04:48:01.079Z,143423.88
2023-01-25T04:50:28.424Z,143437.13
2023-01-25T04:52:57.764Z,143417.84
2023-01-25T04:55:25.739Z,143415.41
2023-01-25T04:57:54.681Z,143446.78
2023-01-25T05:00:21.683Z,143449.19
2023-01-25T05:02:49.743Z,143422.66
2023-01-25T05:05:16.795Z,143408.16
2023-01-25T05:07:46.463Z,143408.16
2023-01-25T05:10:13.495Z,143415.41
2023-01-25T05:12:51.822Z,143410.59
2023-01-25T05:15:18.815Z,143415.41
2023-01-25T05:17:45.660Z,143405.78
2023-01-25T05:20:12.711Z,143400.94
2023-01-25T05:22:39.529Z,143392.50
2023-01-25T05:25:26.555Z,143384.03
2023-01-25T05:27:53.614Z,143403.34
2023-01-25T05:30:40.072Z,143412.97
2023-01-25T05:33:21.242Z,143420.25
2023-01-25T05:35:48.226Z,143393.69
2023-01-25T05:38:15.254Z,143387.66
2023-01-25T05:40:42.907Z,143398.50
2023-01-25T05:43:09.755Z,143367.16
2023-01-25T05:45:36.803Z,143373.22
2023-01-25T05:48:04.785Z,143378.03
2023-01-25T05:50:31.669Z,143376.78
2023-01-25T05:53:05.588Z,143406.97
2023-01-25T05:55:34.950Z,143396.13
2023-01-25T05:58:05.134Z,143390.06
2023-01-25T06:00:32.536Z,143396.13
2023-01-25T06:03:02.655Z,143400.94
2023-01-25T06:05:31.803Z,143385.25
2023-01-25T06:07:58.720Z,143391.31
2023-01-25T06:10:29.884Z,143380.41
2023-01-25T06:13:00.201Z,143367.16
2023-01-25T06:15:27.163Z,143376.78
2023-01-25T06:17:57.690Z,143359.94
2023-01-25T06:20:32.192Z,143357.50
2023-01-25T06:23:07.818Z,143337.03
2023-01-25T06:25:34.632Z,143329.75
2023-01-25T06:28:01.459Z,143338.22
2023-01-25T06:30:28.280Z,143347.84
2023-01-25T06:32:57.689Z,143338.22
2023-01-25T06:35:24.600Z,143327.38
2023-01-25T06:37:51.416Z,143335.78
2023-01-25T06:40:18.357Z,143321.31
2023-01-25T06:42:45.328Z,143341.84
2023-01-25T06:45:12.399Z,143306.84
2023-01-25T06:47:39.696Z,143299.59
2023-01-25T06:50:07.189Z,143330.97
2023-01-25T06:52:36.445Z,143338.22
2023-01-25T06:55:04.298Z,143323.75
2023-01-25T06:57:31.104Z,143298.41
2023-01-25T06:59:57.932Z,143329.75
2023-01-25T07:02:24.801Z,143330.97
2023-01-25T07:04:51.643Z,143326.13
2023-01-25T07:07:18.556Z,143343.03
2023-01-25T07:09:45.387Z,143328.56
2023-01-25T07:12:12.233Z,143328.56
2023-01-25T07:14:39.064Z,143350.28
2023-01-25T07:17:05.841Z,143320.13
2023-01-25T07:19:32.730Z,143326.13
2023-01-25T07:21:59.601Z,143330.97
2023-01-25T07:24:28.734Z,143343.03
2023-01-25T07:26:55.550Z,143344.22
2023-01-25T07:29:22.508Z,143339.41
2023-01-25T07:31:49.482Z,143340.59
2023-01-25T07:34:16.475Z,143343.03
2023-01-25T07:36:47.001Z,143364.75
2023-01-25T07:39:13.938Z,143345.47
2023-01-25T07:41:40.909Z,143333.41
2023-01-25T07:44:12.470Z,143298.41
2023-01-25T07:46:44.124Z,143320.13
2023-01-25T07:49:10.991Z,143321.31
2023-01-25T07:51:37.829Z,143339.41
2023-01-25T07:54:04.928Z,143338.22
2023-01-25T07:56:33.734Z,143387.66
2023-01-25T07:59:02.640Z,143381.66
2023-01-25T08:01:34.600Z,143398.50
2023-01-25T08:04:02.203Z,143362.31
2023-01-25T08:06:35.798Z,143379.22
2023-01-25T08:09:04.576Z,143384.03
2023-01-25T08:11:32.038Z,143363.56
2023-01-25T08:14:01.805Z,143376.78
2023-01-25T08:16:29.733Z,143371.97
2023-01-25T08:18:58.060Z,143186.28
2023-01-25T08:21:28.978Z,143355.13
2023-01-25T08:23:57.103Z,143356.31
2023-01-25T08:26:23.986Z,143374.41
2023-01-25T08:28:53.646Z,143376.78
2023-01-25T08:31:22.412Z,143376.78
2023-01-25T08:33:49.834Z,143362.31
2023-01-25T08:36:18.508Z,143349.06
2023-01-25T08:38:45.965Z,143352.69
2023-01-25T08:41:12.732Z,143345.47
2023-01-25T08:43:39.769Z,143365.94
2023-01-25T08:46:06.649Z,143388.88
2023-01-25T08:48:33.523Z,143393.69
2023-01-25T08:51:04.163Z,143381.66
2023-01-25T08:53:31.778Z,143405.78
2023-01-25T08:56:08.953Z,143403.34
2023-01-25T08:58:37.493Z,143387.66
2023-01-25T09:01:08.857Z,143419.03
2023-01-25T09:03:36.742Z,143388.88
2023-01-25T09:06:03.686Z,143388.88
2023-01-25T09:08:31.279Z,143405.78
2023-01-25T09:11:05.306Z,143384.03
2023-01-25T09:13:32.142Z,143398.50
2023-01-25T09:16:02.471Z,143415.41
2023-01-25T09:18:29.939Z,143417.84
2023-01-25T09:20:57.036Z,143414.22
2023-01-25T09:23:24.290Z,143427.50
2023-01-25T09:25:58.338Z,143425.06
2023-01-25T09:28:26.244Z,143425.06
2023-01-25T09:31:18.874Z,143426.25
2023-01-25T09:34:12.791Z,143392.50
2023-01-25T09:36:39.639Z,143382.84
2023-01-25T09:39:06.515Z,143400.94
2023-01-25T09:41:48.298Z,143406.97
2023-01-25T09:44:15.459Z,143410.59
2023-01-25T09:46:53.033Z,143417.84
2023-01-25T09:49:28.741Z,143414.22
2023-01-25T09:52:01.348Z,143417.84
2023-01-25T09:54:31.643Z,143417.84
2023-01-25T09:56:59.126Z,143410.59
2023-01-25T09:59:30.507Z,143405.78
2023-01-25T10:02:00.451Z,143421.44
2023-01-25T10:04:35.626Z,143450.41
2023-01-25T10:07:11.474Z,143466.09
2023-01-25T10:09:45.284Z,143485.38
2023-01-25T10:12:15.481Z,143481.78
2023-01-25T10:14:42.463Z,143475.72
2023-01-25T10:17:25.659Z,143458.88
2023-01-25T10:19:55.440Z,143461.25
2023-01-25T10:22:24.655Z,143487.81
2023-01-25T10:24:57.619Z,143524.00
2023-01-25T10:27:33.436Z,143528.84
2023-01-25T10:30:20.199Z,143507.09
2023-01-25T10:32:55.864Z,143491.44
2023-01-25T10:35:35.518Z,143455.25
2023-01-25T10:38:06.743Z,143485.38
2023-01-25T10:40:39.353Z,143499.91
2023-01-25T10:43:13.013Z,143461.25
2023-01-25T10:45:39.964Z,143468.50
2023-01-25T10:48:11.405Z,143429.88
2023-01-25T10:50:47.534Z,143469.72
2023-01-25T10:53:23.171Z,143447.97
2023-01-25T10:56:00.623Z,143472.16
2023-01-25T10:58:30.293Z,143521.56
2023-01-25T11:00:57.187Z,143444.34
2023-01-25T11:03:33.247Z,143472.16
2023-01-25T11:06:00.121Z,143499.91
2023-01-25T11:08:30.029Z,143483.00
2023-01-25T11:10:57.650Z,143521.56
2023-01-25T11:13:25.931Z,143519.19
2023-01-25T11:15:54.957Z,143511.94
2023-01-25T11:18:23.438Z,143456.44
2023-01-25T11:21:05.857Z,143468.50
2023-01-25T11:23:33.763Z,143490.25
2023-01-25T11:26:17.139Z,143507.09
2023-01-25T11:28:44.738Z,143536.09
2023-01-25T11:31:13.333Z,143499.91
2023-01-25T11:33:40.965Z,143518.00
2023-01-25T11:36:13.790Z,143509.53
2023-01-25T11:38:45.977Z,143524.00
2023-01-25T11:41:18.990Z,143543.31
2023-01-25T11:43:45.842Z,143560.22
2023-01-25T11:46:15.455Z,143549.38
2023-01-25T11:48:47.227Z,143552.97
2023-01-25T11:51:34.381Z,143507.09
2023-01-25T11:54:13.107Z,143505.91
2023-01-25T11:56:50.124Z,143490.25
2023-01-25T11:59:17.041Z,143481.78
2023-01-25T12:01:59.489Z,143514.38
2023-01-25T12:04:29.375Z,143516.75
2023-01-25T12:06:56.507Z,143501.09
2023-01-25T12:09:41.810Z,143513.16
2023-01-25T12:12:12.618Z,143499.91
2023-01-25T12:14:54.799Z,143536.09
2023-01-25T12:17:30.561Z,143514.38
2023-01-25T12:20:06.944Z,143516.75
2023-01-25T12:22:36.987Z,143519.19
2023-01-25T12:25:18.866Z,143515.56
2023-01-25T12:27:51.562Z,143511.94
2023-01-25T12:30:23.372Z,143528.84
2023-01-25T12:33:13.985Z,143526.44
2023-01-25T12:35:44.447Z,143555.41
2023-01-25T12:38:17.877Z,143549.38
2023-01-25T12:40:48.905Z,143550.56
2023-01-25T12:43:20.452Z,143552.97
2023-01-25T12:45:48.915Z,143521.56
2023-01-25T12:48:21.571Z,143557.78
2023-01-25T12:50:52.104Z,143533.66
2023-01-25T12:53:25.177Z,143540.94
2023-01-25T12:55:52.858Z,143516.75
2023-01-25T12:58:37.907Z,143522.81
2023-01-25T13:01:28.231Z,143483.00
2023-01-25T13:03:55.070Z,143513.16
2023-01-25T13:06:34.071Z,143515.56
2023-01-25T13:09:01.751Z,143509.53
2023-01-25T13:11:36.962Z,143466.09
2023-01-25T13:14:15.826Z,143502.28
2023-01-25T13:17:01.348Z,143514.38
2023-01-25T13:19:31.823Z,143514.38
2023-01-25T13:21:59.476Z,143516.75
2023-01-25T13:24:33.728Z,143505.91
2023-01-25T13:27:05.360Z,143524.00
2023-01-25T13:29:32.186Z,143504.72
2023-01-25T13:31:59.761Z,143531.28
2023-01-25T13:34:35.745Z,143508.34
2023-01-25T13:37:03.678Z,143536.09
2023-01-25T13:39:31.594Z,143565.06
2023-01-25T13:42:10.757Z,143514.38
2023-01-25T13:44:42.335Z,143468.50
2023-01-25T13:47:13.422Z,143473.34
2023-01-25T13:49:41.864Z,143457.63
2023-01-25T13:52:14.453Z,143473.34
2023-01-25T13:54:44.651Z,143483.00
2023-01-25T13:57:14.262Z,143460.06
2023-01-25T13:59:41.395Z,143476.97
2023-01-25T14:02:22.037Z,143483.00
2023-01-25T14:04:50.212Z,143483.00
2023-01-25T14:07:18.866Z,143481.78
2023-01-25T14:09:46.849Z,143492.63
2023-01-25T14:12:32.353Z,143491.44
2023-01-25T14:15:10.181Z,143491.44
2023-01-25T14:17:36.971Z,143484.19
2023-01-25T14:20:17.187Z,143502.28
2023-01-25T14:22:47.616Z,143503.47
2023-01-25T14:25:18.592Z,143335.78
2023-01-25T14:27:51.158Z,143451.63
2023-01-25T14:30:20.873Z,143429.88
2023-01-25T14:32:48.655Z,143446.78
2023-01-25T14:35:54.694Z,143469.72
2023-01-25T14:38:24.516Z,143428.69
2023-01-25T14:40:53.640Z,143417.84
2023-01-25T14:43:20.679Z,143415.41
2023-01-25T14:45:47.527Z,143398.50
2023-01-25T14:48:33.313Z,143411.78
2023-01-25T14:51:04.554Z,143427.50
2023-01-25T14:53:31.587Z,143447.97
2023-01-25T14:55:58.511Z,143440.78
2023-01-25T14:58:25.811Z,143440.78
2023-01-25T15:00:57.433Z,143456.44
2023-01-25T15:03:26.643Z,143426.25
2023-01-25T15:05:54.512Z,143449.19
2023-01-25T15:08:35.784Z,143432.31
2023-01-25T15:11:21.249Z,143454.03
2023-01-25T15:13:48.226Z,143475.72
2023-01-25T15:16:16.579Z,143485.38
2023-01-25T15:18:48.179Z,143434.72
2023-01-25T15:21:25.657Z,143441.97
2023-01-25T15:23:53.395Z,143431.06
2023-01-25T15:26:21.224Z,143404.56
2023-01-25T15:28:52.264Z,143390.06
2023-01-25T15:31:24.311Z,143369.59
2023-01-25T15:33:51.339Z,143388.88
2023-01-25T15:36:18.553Z,143384.03
2023-01-25T15:38:45.741Z,143391.31
2023-01-25T15:41:13.646Z,143386.47
2023-01-25T15:43:40.911Z,143364.75
2023-01-25T15:46:14.801Z,143373.22
2023-01-25T15:48:42.325Z,143391.31
2023-01-25T15:51:09.144Z,143393.69
2023-01-25T15:53:35.973Z,143385.25
2023-01-25T15:56:10.853Z,143367.16
2023-01-25T15:58:39.163Z,143369.59
2023-01-25T16:01:06.220Z,143368.38
2023-01-25T16:03:33.125Z,143346.66
2023-01-25T16:06:01.927Z,143330.97
2023-01-25T16:08:29.344Z,143347.84
2023-01-25T16:10:56.361Z,143335.78
2023-01-25T16:13:23.924Z,143350.28
2023-01-25T16:15:54.847Z,143367.16
2023-01-25T16:18:21.690Z,143387.66
2023-01-25T16:20:48.935Z,143431.06
2023-01-25T16:23:15.864Z,143427.50
2023-01-25T16:25:44.306Z,143367.16
2023-01-25T16:28:14.747Z,143362.31
2023-01-25T16:30:41.955Z,143427.50
2023-01-25T16:33:08.793Z,143421.44
2023-01-25T16:35:35.663Z,143334.59
2023-01-25T16:38:02.469Z,143338.22
2023-01-25T16:40:32.439Z,143335.78
2023-01-25T16:42:59.221Z,143330.97
2023-01-25T16:45:26.147Z,143352.69
2023-01-25T16:47:53.397Z,143340.59
2023-01-25T16:50:21.479Z,143359.94
2023-01-25T16:52:51.656Z,143352.69
2023-01-25T16:55:19.168Z,143340.59
2023-01-25T16:57:49.475Z,143302.03
2023-01-25T17:00:16.518Z,143285.13
2023-01-25T17:02:56.963Z,143263.44
2023-01-25T17:05:27.696Z,143316.50
2023-01-25T17:07:54.578Z,143299.59
2023-01-25T17:10:21.398Z,143312.88
2023-01-25T17:12:49.458Z,143268.28
2023-01-25T17:15:19.785Z,143287.56
2023-01-25T17:17:46.621Z,143238.13
2023-01-25T17:20:13.455Z,143256.22
2023-01-25T17:22:41.845Z,143261.03
2023-01-25T17:25:08.737Z,143271.88
2023-01-25T17:27:35.520Z,143276.69
2023-01-25T17:30:02.399Z,143279.13
2023-01-25T17:32:29.407Z,143328.56
2023-01-25T17:34:58.920Z,143289.97
2023-01-25T17:37:25.901Z,143297.22
2023-01-25T17:39:54.580Z,143275.50
2023-01-25T17:42:22.080Z,143280.31
2023-01-25T17:44:48.929Z,143275.50
2023-01-25T17:47:15.802Z,143294.78
2023-01-25T17:49:42.698Z,143341.84
2023-01-25T17:52:09.605Z,143337.03
2023-01-25T17:54:36.777Z,143314.09
2023-01-25T17:57:03.594Z,143289.97
2023-01-25T17:59:30.398Z,143263.44
2023-01-25T18:01:57.793Z,143287.56
2023-01-25T18:04:25.364Z,143271.88
2023-01-25T18:06:52.437Z,143289.97
2023-01-25T18:09:19.276Z,143303.22
2023-01-25T18:11:46.322Z,143289.97
2023-01-25T18:14:16.550Z,143258.59
2023-01-25T18:16:43.596Z,143236.94
2023-01-25T18:19:10.708Z,143210.41
2023-01-25T18:21:37.872Z,143244.16
2023-01-25T18:24:07.541Z,143226.06
2023-01-25T18:26:36.891Z,143215.22
2023-01-25T18:29:09.659Z,143201.97
2023-01-25T18:31:36.764Z,143283.94
2023-01-25T18:34:04.040Z,143273.09
2023-01-25T18:36:31.078Z,143263.44
2023-01-25T18:38:59.815Z,143282.75
2023-01-25T18:41:27.009Z,143261.03
2023-01-25T18:43:53.846Z,143234.50
2023-01-25T18:46:20.714Z,143185.06
2023-01-25T18:48:47.673Z,143200.78
2023-01-25T18:51:15.812Z,143180.25
2023-01-25T18:53:43.468Z,143221.25
2023-01-25T18:56:14.995Z,143226.06
2023-01-25T18:58:41.955Z,143234.50
2023-01-25T19:01:15.758Z,143256.22
2023-01-25T19:03:43.238Z,143253.78
2023-01-25T19:06:10.733Z,143176.63
2023-01-25T19:08:41.422Z,143186.28
2023-01-25T19:11:12.382Z,143217.63
2023-01-25T19:13:39.921Z,143195.94
2023-01-25T19:16:08.641Z,143145.28
2023-01-25T19:18:36.745Z,143182.69
2023-01-25T19:21:07.867Z,143181.44
2023-01-25T19:23:35.882Z,143142.91
2023-01-25T19:26:03.289Z,143133.25
2023-01-25T19:28:30.458Z,143174.25
2023-01-25T19:30:57.426Z,143111.56
2023-01-25T19:33:24.297Z,143113.94
2023-01-25T19:35:57.796Z,143066.97
2023-01-25T19:38:24.596Z,143070.59
2023-01-25T19:40:51.502Z,143092.28
2023-01-25T19:43:18.323Z,143118.75
2023-01-25T19:45:45.320Z,143138.09
2023-01-25T19:48:12.187Z,143113.94
2023-01-25T19:50:38.995Z,143182.69
2023-01-25T19:53:06.965Z,143113.94
2023-01-25T19:55:33.820Z,143097.09
2023-01-25T19:58:00.694Z,143118.75
2023-01-25T20:00:27.561Z,143085.03
2023-01-25T20:02:57.365Z,143097.09
2023-01-25T20:05:28.360Z,143089.84
2023-01-25T20:07:55.310Z,143092.28
2023-01-25T20:10:22.291Z,143101.94
2023-01-25T20:12:49.108Z,143104.31
2023-01-25T20:15:16.174Z,143113.94
2023-01-25T20:17:43.424Z,143113.94
2023-01-25T20:20:10.798Z,143060.97
2023-01-25T20:22:37.722Z,143075.41
2023-01-25T20:25:04.659Z,143060.97
2023-01-25T20:27:31.549Z,143093.47
2023-01-25T20:29:58.374Z,143063.34
2023-01-25T20:32:32.827Z,143060.97
2023-01-25T20:35:03.326Z,143109.13
2023-01-25T20:37:30.162Z,143083.84
2023-01-25T20:39:56.943Z,143068.16
2023-01-25T20:42:23.741Z,143075.41
2023-01-25T20:44:50.570Z,143077.78
2023-01-25T20:47:17.447Z,143086.22
2023-01-25T20:49:44.468Z,143092.28
2023-01-25T20:52:13.677Z,143088.66
2023-01-25T20:54:41.611Z,143070.59
2023-01-25T20:57:08.497Z,143072.97
2023-01-25T20:59:35.288Z,143075.41
2023-01-25T21:02:02.217Z,143079.03
2023-01-25T21:04:29.020Z,143060.97
2023-01-25T21:06:55.848Z,143132.03
2023-01-25T21:09:23.203Z,143080.22
2023-01-25T21:11:49.996Z,143056.13
2023-01-25T21:14:16.855Z,143091.06
2023-01-25T21:16:43.677Z,143075.41
2023-01-25T21:19:10.483Z,143072.97
2023-01-25T21:21:38.456Z,143109.13
2023-01-25T21:24:05.923Z,143077.78
2023-01-25T21:26:34.203Z,143118.75
2023-01-25T21:29:01.876Z,143081.41
2023-01-25T21:31:30.739Z,143075.41
2023-01-25T21:33:57.795Z,143101.94
2023-01-25T21:36:24.946Z,143104.31
2023-01-25T21:38:52.515Z,143116.38
2023-01-25T21:41:21.052Z,143058.53
2023-01-25T21:44:07.266Z,143035.63
2023-01-25T21:46:34.216Z,143051.31
2023-01-25T21:49:20.820Z,143051.31
2023-01-25T21:51:49.565Z,143062.16
2023-01-25T21:54:26.807Z,143038.06
2023-01-25T21:56:54.498Z,143060.97
2023-01-25T21:59:21.893Z,143046.47
2023-01-25T22:01:49.098Z,143053.72
2023-01-25T22:04:17.298Z,143070.59
2023-01-25T22:06:45.949Z,143071.78
2023-01-25T22:09:13.193Z,143033.25
2023-01-25T22:11:40.320Z,143056.13
2023-01-25T22:14:07.431Z,143041.66
2023-01-25T22:16:34.756Z,143052.50
2023-01-25T22:19:01.587Z,143072.97
2023-01-25T22:21:31.952Z,143094.66
2023-01-25T22:24:00.315Z,143063.34
2023-01-25T22:26:32.675Z,143044.06
2023-01-25T22:29:00.121Z,143106.75
2023-01-25T22:31:28.115Z,143046.47
2023-01-25T22:33:55.524Z,143058.53
2023-01-25T22:36:23.332Z,143000.69
2023-01-25T22:38:50.554Z,143029.63
2023-01-25T22:41:18.671Z,142979.03
2023-01-25T22:43:45.838Z,142957.34
2023-01-25T22:46:20.511Z,142986.25
2023-01-25T22:48:47.663Z,142986.25
2023-01-25T22:51:15.611Z,143030.81
2023-01-25T22:53:42.421Z,143087.47
2023-01-25T22:56:13.412Z,143022.38
2023-01-25T22:58:41.201Z,142983.84
2023-01-25T23:01:09.371Z,142981.41
2023-01-25T23:03:36.618Z,143001.91
2023-01-25T23:06:05.230Z,143053.72
2023-01-25T23:08:34.019Z,143024.81
2023-01-25T23:11:01.811Z,142976.59
2023-01-25T23:13:28.988Z,142991.06
2023-01-25T23:15:56.303Z,143000.69
2023-01-25T23:18:41.762Z,142995.88
2023-01-25T23:21:08.594Z,142979.03
2023-01-25T23:23:35.405Z,143022.38
2023-01-25T23:26:02.301Z,143001.91
2023-01-25T23:28:29.624Z,143015.19
2023-01-25T23:31:16.978Z,143044.06
2023-01-25T23:33:44.982Z,143063.34
2023-01-25T23:36:13.491Z,142993.47
2023-01-25T23:38:40.683Z,143001.91
2023-01-25T23:41:07.659Z,143034.44
2023-01-25T23:43:34.833Z,142901.91
2023-01-25T23:46:02.024Z,142918.78
2023-01-25T23:48:29.068Z,142941.66
2023-01-25T23:50:57.815Z,142909.16
2023-01-25T23:53:25.548Z,142926.03
2023-01-25T23:55:53.171Z,142913.97
2023-01-25T23:58:20.598Z,142881.47
